createdAt,value
2022-10-14T00:01:26.352Z,2.95
2022-10-14T00:03:56.170Z,2.92
2022-10-14T00:06:28.295Z,2.83
2022-10-14T00:08:55.807Z,3.22
2022-10-14T00:11:26.946Z,7.18
2022-10-14T00:13:58.508Z,4.15
2022-10-14T00:16:29.228Z,4.63
2022-10-14T00:18:59.537Z,4.60
2022-10-14T00:21:28.217Z,4.95
2022-10-14T00:23:55.717Z,2.60
2022-10-14T00:26:26.813Z,6.75
2022-10-14T00:28:54.157Z,5.30
2022-10-14T00:31:21.418Z,4.20
2022-10-14T00:33:49.539Z,4.85
2022-10-14T00:36:23.536Z,5.07
2022-10-14T00:38:52.022Z,4.80
2022-10-14T00:41:21.348Z,3.10
2022-10-14T00:44:00.211Z,4.15
2022-10-14T00:46:28.823Z,4.05
2022-10-14T00:48:59.480Z,6.20
2022-10-14T00:51:26.839Z,4.88
2022-10-14T00:53:56.868Z,4.95
2022-10-14T00:56:28.639Z,8.50
2022-10-14T00:58:55.899Z,4.57
2022-10-14T01:01:24.524Z,11.38
2022-10-14T01:03:51.395Z,6.75
2022-10-14T01:06:23.995Z,5.32
2022-10-14T01:09:19.939Z,7.03
2022-10-14T01:12:27.030Z,6.13
2022-10-14T01:14:54.882Z,6.97
2022-10-14T01:17:49.059Z,8.88
2022-10-14T01:20:40.317Z,4.70
2022-10-14T01:23:25.397Z,4.55
2022-10-14T01:25:52.302Z,3.13
2022-10-14T01:28:37.939Z,4.60
2022-10-14T01:31:10.929Z,4.63
2022-10-14T01:33:39.574Z,4.00
2022-10-14T01:36:18.799Z,6.28
2022-10-14T01:38:52.818Z,3.90
2022-10-14T01:41:31.709Z,9.55
2022-10-14T01:44:01.083Z,6.03
2022-10-14T01:46:31.739Z,4.93
2022-10-14T01:49:04.293Z,5.68
2022-10-14T01:51:39.834Z,3.90
2022-10-14T01:54:15.505Z,6.85
2022-10-14T01:56:46.121Z,4.85
2022-10-14T01:59:14.553Z,5.75
2022-10-14T02:01:44.297Z,3.67
2022-10-14T02:04:20.817Z,4.68
2022-10-14T02:06:57.561Z,4.13
2022-10-14T02:09:36.122Z,4.70
2022-10-14T02:12:19.575Z,5.85
2022-10-14T02:14:53.574Z,6.05
2022-10-14T02:17:33.943Z,6.18
2022-10-14T02:20:07.107Z,4.43
2022-10-14T02:22:43.668Z,4.35
2022-10-14T02:25:19.082Z,3.45
2022-10-14T02:27:47.192Z,5.43
2022-10-14T02:30:15.106Z,4.97
2022-10-14T02:32:42.039Z,4.13
2022-10-14T02:35:14.769Z,5.00
2022-10-14T02:37:41.982Z,7.45
2022-10-14T02:40:20.266Z,4.78
2022-10-14T02:42:50.497Z,6.93
2022-10-14T02:45:24.173Z,4.80
2022-10-14T02:47:57.218Z,5.93
2022-10-14T02:50:26.925Z,6.85
2022-10-14T02:52:54.069Z,6.03
2022-10-14T02:55:20.889Z,4.93
2022-10-14T02:57:47.667Z,4.55
2022-10-14T03:00:16.702Z,4.72
2022-10-14T03:02:47.381Z,4.88
2022-10-14T03:05:14.352Z,7.30
2022-10-14T03:07:41.820Z,11.98
2022-10-14T03:10:09.001Z,4.05
2022-10-14T03:12:39.361Z,4.60
2022-10-14T03:15:07.609Z,6.80
2022-10-14T03:17:34.740Z,5.15
2022-10-14T03:20:02.655Z,4.47
2022-10-14T03:22:29.518Z,11.75
2022-10-14T03:24:56.525Z,7.35
2022-10-14T03:27:25.840Z,6.50
2022-10-14T03:29:52.854Z,5.07
2022-10-14T03:32:19.960Z,6.43
2022-10-14T03:34:46.985Z,6.68
2022-10-14T03:37:13.978Z,5.75
2022-10-14T03:39:41.271Z,6.25
2022-10-14T03:42:10.131Z,7.25
2022-10-14T03:44:42.650Z,5.13
2022-10-14T03:47:13.196Z,10.07
2022-10-14T03:49:42.762Z,5.57
2022-10-14T03:52:09.917Z,9.30
2022-10-14T03:54:39.433Z,4.47
2022-10-14T03:57:09.007Z,8.80
2022-10-14T03:59:39.416Z,14.05
2022-10-14T04:02:12.144Z,6.00
2022-10-14T04:04:39.045Z,4.40
2022-10-14T04:07:09.357Z,10.45
2022-10-14T04:09:40.614Z,5.68
2022-10-14T04:12:08.261Z,8.13
2022-10-14T04:14:35.203Z,5.43
2022-10-14T04:17:04.050Z,6.60
2022-10-14T04:19:31.218Z,10.73
2022-10-14T04:21:59.177Z,5.95
2022-10-14T04:24:26.070Z,4.13
2022-10-14T04:26:53.375Z,4.63
2022-10-14T04:29:20.542Z,5.40
2022-10-14T04:31:51.091Z,8.15
2022-10-14T04:34:18.033Z,7.45
2022-10-14T04:36:48.351Z,7.22
2022-10-14T04:39:18.485Z,4.43
2022-10-14T04:41:48.700Z,6.00
2022-10-14T04:44:18.506Z,7.05
2022-10-14T04:46:45.514Z,4.43
2022-10-14T04:49:14.873Z,6.85
2022-10-14T04:51:45.116Z,6.93
2022-10-14T04:54:12.807Z,5.22
2022-10-14T04:56:39.617Z,5.05
2022-10-14T04:59:06.788Z,3.70
2022-10-14T05:01:34.349Z,12.23
2022-10-14T05:04:01.401Z,6.63
2022-10-14T05:06:28.646Z,11.18
2022-10-14T05:08:55.946Z,5.53
2022-10-14T05:11:22.841Z,6.68
2022-10-14T05:13:52.814Z,5.30
2022-10-14T05:16:19.619Z,6.47
2022-10-14T05:18:46.606Z,12.40
2022-10-14T05:21:17.065Z,7.60
2022-10-14T05:23:44.039Z,6.90
2022-10-14T05:26:11.444Z,7.18
2022-10-14T05:28:42.789Z,6.53
2022-10-14T05:31:11.194Z,6.38
2022-10-14T05:33:39.451Z,5.35
2022-10-14T05:36:09.746Z,6.88
2022-10-14T05:38:40.043Z,7.13
2022-10-14T05:41:07.018Z,6.22
2022-10-14T05:43:33.961Z,5.28
2022-10-14T05:46:03.727Z,6.25
2022-10-14T05:48:31.016Z,5.50
2022-10-14T05:51:04.200Z,7.40
2022-10-14T05:53:32.835Z,6.45
2022-10-14T05:56:04.498Z,6.28
2022-10-14T05:58:31.754Z,7.68
2022-10-14T06:01:03.309Z,11.63
2022-10-14T06:03:33.733Z,5.70
2022-10-14T06:06:01.357Z,6.72
2022-10-14T06:08:32.169Z,8.55
2022-10-14T06:11:05.947Z,6.15
2022-10-14T06:13:32.692Z,7.90
2022-10-14T06:16:03.240Z,5.97
2022-10-14T06:18:32.744Z,5.85
2022-10-14T06:20:59.844Z,5.20
2022-10-14T06:23:27.372Z,9.65
2022-10-14T06:25:55.357Z,6.60
2022-10-14T06:28:26.162Z,5.72
2022-10-14T06:30:58.735Z,6.78
2022-10-14T06:33:30.621Z,7.68
2022-10-14T06:36:00.082Z,6.93
2022-10-14T06:38:27.318Z,6.57
2022-10-14T06:40:54.830Z,9.63
2022-10-14T06:43:23.268Z,8.50
2022-10-14T06:45:50.254Z,6.70
2022-10-14T06:48:20.338Z,7.10
2022-10-14T06:50:50.397Z,8.27
2022-10-14T06:53:17.211Z,11.73
2022-10-14T06:55:46.963Z,7.85
2022-10-14T06:58:17.086Z,7.20
2022-10-14T07:00:47.936Z,7.57
2022-10-14T07:03:18.324Z,8.15
2022-10-14T07:05:45.218Z,7.13
2022-10-14T07:08:15.234Z,8.35
2022-10-14T07:10:45.483Z,7.72
2022-10-14T07:13:20.044Z,8.43
2022-10-14T07:15:52.857Z,10.98
2022-10-14T07:18:20.286Z,13.07
2022-10-14T07:20:48.228Z,9.02
2022-10-14T07:23:15.720Z,10.25
2022-10-14T07:25:42.890Z,7.93
2022-10-14T07:28:12.894Z,15.07
2022-10-14T07:30:39.834Z,7.82
2022-10-14T07:33:06.864Z,8.07
2022-10-14T07:35:34.184Z,14.80
2022-10-14T07:38:03.914Z,8.63
2022-10-14T07:40:31.281Z,7.00
2022-10-14T07:42:58.420Z,8.23
2022-10-14T07:45:25.316Z,10.18
2022-10-14T07:47:58.440Z,9.80
2022-10-14T07:50:25.889Z,8.02
2022-10-14T07:52:54.215Z,16.15
2022-10-14T07:55:23.554Z,10.65
2022-10-14T07:57:50.555Z,9.55
2022-10-14T08:00:17.611Z,9.45
2022-10-14T08:02:44.879Z,8.27
2022-10-14T08:05:37.090Z,7.82
2022-10-14T08:07:58.889Z,12.05
2022-10-14T08:10:26.223Z,13.63
2022-10-14T08:12:55.478Z,15.55
2022-10-14T08:15:22.573Z,17.35
2022-10-14T08:17:49.513Z,9.88
2022-10-14T08:20:16.549Z,12.95
2022-10-14T08:22:43.523Z,17.00
2022-10-14T08:25:13.450Z,13.68
2022-10-14T08:27:40.202Z,11.30
2022-10-14T08:30:11.266Z,13.65
2022-10-14T08:32:40.653Z,13.80
2022-10-14T08:35:17.876Z,10.93
2022-10-14T08:37:48.027Z,12.80
2022-10-14T08:40:17.455Z,12.75
2022-10-14T08:43:08.476Z,13.52
2022-10-14T08:45:40.566Z,9.90
2022-10-14T08:48:13.927Z,11.15
2022-10-14T08:50:47.693Z,10.48
2022-10-14T08:53:30.753Z,11.70
2022-10-14T08:56:02.069Z,11.68
2022-10-14T08:58:38.789Z,14.05
2022-10-14T09:01:14.082Z,13.07
2022-10-14T09:03:42.429Z,13.48
2022-10-14T09:06:29.270Z,12.88
2022-10-14T09:09:07.609Z,11.18
2022-10-14T09:11:40.469Z,10.98
2022-10-14T09:14:12.471Z,12.20
2022-10-14T09:16:51.854Z,17.05
2022-10-14T09:19:27.273Z,12.48
2022-10-14T09:21:55.249Z,10.38
2022-10-14T09:24:37.473Z,10.90
2022-10-14T09:27:18.974Z,9.23
2022-10-14T09:29:47.749Z,13.43
2022-10-14T09:32:24.071Z,10.65
2022-10-14T09:34:52.334Z,10.68
2022-10-14T09:37:25.637Z,10.15
2022-10-14T09:39:54.649Z,12.32
2022-10-14T09:42:48.437Z,11.75
2022-10-14T09:45:20.176Z,9.68
2022-10-14T09:48:00.836Z,11.50
2022-10-14T09:50:42.855Z,8.75
2022-10-14T09:53:15.745Z,12.00
2022-10-14T09:55:49.843Z,12.65
2022-10-14T09:58:24.323Z,9.35
2022-10-14T10:00:59.003Z,9.60
2022-10-14T10:03:35.864Z,7.95
2022-10-14T10:06:11.078Z,9.07
2022-10-14T10:08:39.672Z,12.73
2022-10-14T10:11:14.965Z,8.05
2022-10-14T10:13:44.042Z,8.52
2022-10-14T10:16:30.477Z,5.07
2022-10-14T10:19:03.721Z,9.15
2022-10-14T10:21:31.048Z,8.65
2022-10-14T10:23:59.640Z,12.05
2022-10-14T10:26:34.399Z,7.45
2022-10-14T10:29:05.466Z,7.50
2022-10-14T10:31:42.053Z,8.07
2022-10-14T10:34:39.071Z,7.55
2022-10-14T10:37:10.980Z,9.52
2022-10-14T10:39:57.189Z,6.97
2022-10-14T10:42:27.527Z,7.60
2022-10-14T10:44:59.261Z,8.65
2022-10-14T10:47:26.921Z,7.35
2022-10-14T10:50:12.559Z,10.02
2022-10-14T10:52:41.605Z,7.00
2022-10-14T10:55:17.629Z,9.82
2022-10-14T10:58:06.072Z,11.10
2022-10-14T11:00:46.310Z,8.93
2022-10-14T11:03:34.949Z,11.95
2022-10-14T11:06:14.208Z,9.35
2022-10-14T11:09:10.775Z,11.88
2022-10-14T11:12:03.994Z,7.35
2022-10-14T11:14:42.510Z,7.85
2022-10-14T11:17:19.293Z,8.18
2022-10-14T11:19:59.444Z,12.07
2022-10-14T11:22:51.160Z,6.93
2022-10-14T11:25:18.148Z,8.60
2022-10-14T11:30:59.053Z,9.18
2022-10-14T11:33:49.108Z,10.52
2022-10-14T11:36:19.071Z,8.88
2022-10-14T11:39:00.365Z,6.55
2022-10-14T11:41:46.333Z,5.80
2022-10-14T11:44:20.697Z,7.00
2022-10-14T11:46:58.158Z,9.00
2022-10-14T11:49:31.476Z,9.38
2022-10-14T11:52:03.887Z,10.45
2022-10-14T11:54:54.143Z,8.73
2022-10-14T11:57:25.558Z,8.65
2022-10-14T11:59:53.348Z,11.80
2022-10-14T12:02:39.666Z,9.05
2022-10-14T12:05:19.012Z,9.18
2022-10-14T12:07:50.728Z,7.55
2022-10-14T12:10:23.306Z,9.88
2022-10-14T12:12:51.450Z,7.93
2022-10-14T12:15:21.344Z,7.75
2022-10-14T12:17:56.328Z,7.63
2022-10-14T12:20:23.281Z,10.55
2022-10-14T12:22:50.612Z,8.75
2022-10-14T12:25:21.727Z,7.43
2022-10-14T12:27:49.425Z,5.03
2022-10-14T12:30:33.337Z,8.48
2022-10-14T12:33:02.134Z,6.97
2022-10-14T12:36:07.403Z,6.45
2022-10-14T12:38:38.597Z,4.63
2022-10-14T12:41:38.246Z,6.05
2022-10-14T12:44:09.710Z,4.53
2022-10-14T12:46:43.133Z,4.63
2022-10-14T12:49:17.417Z,4.43
2022-10-14T12:51:58.097Z,4.35
2022-10-14T12:54:27.430Z,5.65
2022-10-14T12:57:14.518Z,4.32
2022-10-14T12:59:43.879Z,8.05
2022-10-14T13:02:19.984Z,4.93
2022-10-14T13:04:48.670Z,3.60
2022-10-14T13:07:52.219Z,4.25
2022-10-14T13:10:24.029Z,5.72
2022-10-14T13:12:53.533Z,3.97
2022-10-14T13:15:56.023Z,4.43
2022-10-14T13:18:31.577Z,4.47
2022-10-14T13:20:58.492Z,3.55
2022-10-14T13:23:30.611Z,2.03
2022-10-14T13:26:11.092Z,2.90
2022-10-14T13:28:45.440Z,4.70
2022-10-14T13:31:16.000Z,5.93
2022-10-14T13:33:58.100Z,2.67
2022-10-14T13:36:32.872Z,5.50
2022-10-14T13:39:01.017Z,5.03
2022-10-14T13:41:31.361Z,3.63
2022-10-14T13:44:01.254Z,2.92
2022-10-14T13:46:42.911Z,3.35
2022-10-14T13:49:19.085Z,4.00
2022-10-14T13:51:56.072Z,6.65
2022-10-14T13:54:24.715Z,3.40
2022-10-14T13:57:34.666Z,2.83
2022-10-14T14:02:40.001Z,2.42
2022-10-14T14:05:07.545Z,3.95
2022-10-14T14:08:14.181Z,3.28
2022-10-14T14:10:27.965Z,3.70
2022-10-14T14:12:54.970Z,2.45
2022-10-14T14:15:27.360Z,2.83
2022-10-14T14:17:54.592Z,3.03
2022-10-14T14:20:34.353Z,4.70
2022-10-14T14:23:01.213Z,2.97
2022-10-14T14:25:34.372Z,2.13
2022-10-14T14:28:06.227Z,2.22
2022-10-14T14:30:35.458Z,4.05
2022-10-14T14:33:04.919Z,2.70
2022-10-14T14:35:32.257Z,3.00
2022-10-14T14:38:02.387Z,3.97
2022-10-14T14:40:30.589Z,2.47
2022-10-14T14:43:04.577Z,1.85
2022-10-14T14:45:35.602Z,3.28
2022-10-14T14:48:03.683Z,3.67
2022-10-14T14:50:43.252Z,5.05
2022-10-14T14:53:29.810Z,5.38
2022-10-14T14:55:58.337Z,7.93
2022-10-14T14:58:25.305Z,1.83
2022-10-14T15:00:57.785Z,2.10
2022-10-14T15:03:30.785Z,3.08
2022-10-14T15:05:59.342Z,2.50
2022-10-14T15:08:27.870Z,2.92
2022-10-14T15:10:55.882Z,6.28
2022-10-14T15:13:27.114Z,2.63
2022-10-14T15:15:56.085Z,3.88
2022-10-14T15:18:28.214Z,2.50
2022-10-14T15:21:06.094Z,2.85
2022-10-14T15:23:42.734Z,3.53
2022-10-14T15:26:28.343Z,2.47
2022-10-14T15:29:08.402Z,2.45
2022-10-14T15:31:39.236Z,3.05
2022-10-14T15:34:06.708Z,6.32
2022-10-14T15:36:34.853Z,3.42
2022-10-14T15:39:06.330Z,2.60
2022-10-14T15:41:36.155Z,3.17
2022-10-14T15:44:03.065Z,3.25
2022-10-14T15:46:52.283Z,4.63
2022-10-14T15:49:23.486Z,5.43
2022-10-14T15:51:50.645Z,2.75
2022-10-14T15:54:17.695Z,6.22
2022-10-14T15:59:26.464Z,3.60
2022-10-14T16:01:56.639Z,2.72
2022-10-14T16:04:29.837Z,4.50
2022-10-14T16:06:57.848Z,3.58
2022-10-14T16:09:26.883Z,3.55
2022-10-14T16:11:59.676Z,2.17
2022-10-14T16:14:27.903Z,5.50
2022-10-14T16:16:57.329Z,3.10
2022-10-14T16:19:27.291Z,3.55
2022-10-14T16:21:56.910Z,2.38
2022-10-14T16:24:26.191Z,6.03
2022-10-14T16:26:53.853Z,4.55
2022-10-14T16:29:23.543Z,3.85
2022-10-14T16:31:51.748Z,2.45
2022-10-14T16:34:20.156Z,6.65
2022-10-14T16:36:50.169Z,3.13
2022-10-14T16:39:20.866Z,2.75
2022-10-14T16:41:50.980Z,6.18
2022-10-14T16:44:27.867Z,4.25
2022-10-14T16:47:14.832Z,5.45
2022-10-14T16:49:43.246Z,5.05
2022-10-14T16:52:10.438Z,6.90
2022-10-14T16:54:38.240Z,3.47
2022-10-14T16:57:05.654Z,5.28
2022-10-14T16:59:33.152Z,3.47
2022-10-14T17:02:02.139Z,4.85
2022-10-14T17:04:29.687Z,5.18
2022-10-14T17:07:02.156Z,5.13
2022-10-14T17:09:32.072Z,6.25
2022-10-14T17:11:58.923Z,6.22
2022-10-14T17:14:25.770Z,5.00
2022-10-14T17:16:55.048Z,7.25
2022-10-14T17:19:22.051Z,7.28
2022-10-14T17:21:49.557Z,5.47
2022-10-14T17:24:17.831Z,10.00
2022-10-14T17:26:45.689Z,5.85
2022-10-14T17:29:12.694Z,7.05
2022-10-14T17:31:39.671Z,5.47
2022-10-14T17:34:09.518Z,12.65
2022-10-14T17:36:36.605Z,4.70
2022-10-14T17:39:13.001Z,7.72
2022-10-14T17:41:47.397Z,6.20
2022-10-14T17:44:14.239Z,6.60
2022-10-14T17:46:41.271Z,8.70
2022-10-14T17:49:12.113Z,7.43
2022-10-14T17:51:39.369Z,8.65
2022-10-14T17:54:10.391Z,7.90
2022-10-14T17:56:37.649Z,7.43
2022-10-14T17:59:06.314Z,7.93
2022-10-14T18:01:37.702Z,8.35
2022-10-14T18:04:13.894Z,6.97
2022-10-14T18:06:44.863Z,7.93
2022-10-14T18:09:15.365Z,6.38
2022-10-14T18:14:36.759Z,6.53
2022-10-14T18:17:07.322Z,8.07
2022-10-14T18:19:36.677Z,7.80
2022-10-14T18:22:08.105Z,7.15
2022-10-14T18:24:38.721Z,8.50
2022-10-14T18:27:05.956Z,8.75
2022-10-14T18:29:36.195Z,7.57
2022-10-14T18:32:03.242Z,6.68
2022-10-14T18:34:36.710Z,8.30
2022-10-14T18:37:07.483Z,9.02
2022-10-14T18:39:37.531Z,8.38
2022-10-14T18:42:04.637Z,8.18
2022-10-14T18:44:33.228Z,8.00
2022-10-14T18:47:00.719Z,7.57
2022-10-14T18:49:38.146Z,6.63
2022-10-14T18:52:11.768Z,8.90
2022-10-14T18:54:38.995Z,7.68
2022-10-14T18:57:06.082Z,6.68
2022-10-14T18:59:33.721Z,7.75
2022-10-14T19:02:05.404Z,7.05
2022-10-14T19:04:32.435Z,6.40
2022-10-14T19:06:59.482Z,7.43
2022-10-14T19:09:30.187Z,10.77
2022-10-14T19:11:59.474Z,12.77
2022-10-14T19:14:27.012Z,6.07
2022-10-14T19:16:54.318Z,11.25
2022-10-14T19:19:30.211Z,6.63
2022-10-14T19:22:01.375Z,6.30
2022-10-14T19:24:28.212Z,6.50
2022-10-14T19:26:56.354Z,6.40
2022-10-14T19:29:26.715Z,5.68
2022-10-14T19:31:55.481Z,4.43
2022-10-14T19:34:26.734Z,3.80
2022-10-14T19:36:57.195Z,6.03
2022-10-14T19:39:24.272Z,5.80
2022-10-14T19:41:51.641Z,3.97
2022-10-14T19:44:18.802Z,5.18
2022-10-14T19:46:49.079Z,5.47
2022-10-14T19:49:16.255Z,5.05
2022-10-14T19:51:43.282Z,5.50
2022-10-14T19:54:11.076Z,5.47
2022-10-14T19:56:38.029Z,5.65
2022-10-14T19:59:04.903Z,7.40
2022-10-14T20:01:34.713Z,4.88
2022-10-14T20:04:03.435Z,5.45
2022-10-14T20:06:34.612Z,6.47
2022-10-14T20:09:05.087Z,6.82
2022-10-14T20:11:35.795Z,7.53
2022-10-14T20:14:06.089Z,6.97
2022-10-14T20:16:36.063Z,5.78
2022-10-14T20:19:03.009Z,3.22
2022-10-14T20:21:32.191Z,4.57
2022-10-14T20:23:59.953Z,5.30
2022-10-14T20:26:27.140Z,4.00
2022-10-14T20:28:54.876Z,3.63
2022-10-14T20:31:23.412Z,3.63
2022-10-14T20:33:50.637Z,4.88
2022-10-14T20:36:24.880Z,5.97
2022-10-14T20:38:52.502Z,3.15
2022-10-14T20:41:24.149Z,4.22
2022-10-14T20:43:51.788Z,3.63
2022-10-14T20:46:23.083Z,4.03
2022-10-14T20:48:53.320Z,3.80
2022-10-14T20:51:23.891Z,3.03
2022-10-14T20:54:00.862Z,8.93
2022-10-14T20:56:31.877Z,4.13
2022-10-14T20:58:59.547Z,2.97
2022-10-14T21:01:27.221Z,3.38
2022-10-14T21:03:55.029Z,3.28
2022-10-14T21:06:23.964Z,4.82
2022-10-14T21:08:51.877Z,3.47
2022-10-14T21:11:21.481Z,2.63
2022-10-14T21:13:50.489Z,4.30
2022-10-14T21:16:26.516Z,2.50
2022-10-14T21:19:04.382Z,3.25
2022-10-14T21:21:34.353Z,3.45
2022-10-14T21:24:01.414Z,3.88
2022-10-14T21:26:30.042Z,3.35
2022-10-14T21:28:57.450Z,2.78
2022-10-14T21:31:26.484Z,4.45
2022-10-14T21:34:05.299Z,2.45
2022-10-14T21:36:36.049Z,3.33
2022-10-14T21:39:13.787Z,3.08
2022-10-14T21:41:40.987Z,2.83
2022-10-14T21:44:08.849Z,3.08
2022-10-14T21:46:35.895Z,3.80
2022-10-14T21:49:05.492Z,2.55
2022-10-14T21:51:33.775Z,2.72
2022-10-14T21:54:05.101Z,2.60
2022-10-14T21:56:32.050Z,1.88
2022-10-14T21:59:02.767Z,3.15
2022-10-14T22:01:35.908Z,2.65
2022-10-14T22:04:04.641Z,3.78
2022-10-14T22:06:33.077Z,2.78
2022-10-14T22:09:04.155Z,2.88
2022-10-14T22:11:36.042Z,2.90
2022-10-14T22:14:07.595Z,3.45
2022-10-14T22:16:36.356Z,3.33
2022-10-14T22:19:07.474Z,3.00
2022-10-14T22:21:39.176Z,4.57
2022-10-14T22:24:09.475Z,4.32
2022-10-14T22:26:40.328Z,3.78
2022-10-14T22:29:11.878Z,3.72
2022-10-14T22:31:42.516Z,4.00
2022-10-14T22:34:13.314Z,5.03
2022-10-14T22:36:43.595Z,2.78
2022-10-14T22:39:17.929Z,2.70
2022-10-14T22:41:51.639Z,4.07
2022-10-14T22:44:21.875Z,2.65
2022-10-14T22:46:56.440Z,2.40
2022-10-14T22:49:23.750Z,7.03
2022-10-14T22:51:53.220Z,4.18
2022-10-14T22:54:24.108Z,2.85
2022-10-14T22:56:54.243Z,3.95
2022-10-14T22:59:21.913Z,2.47
2022-10-14T23:01:48.884Z,3.08
2022-10-14T23:04:21.570Z,4.05
2022-10-14T23:06:50.475Z,2.72
2022-10-14T23:09:20.664Z,4.93
2022-10-14T23:11:48.011Z,5.72
2022-10-14T23:14:15.088Z,2.60
2022-10-14T23:16:44.268Z,3.22
2022-10-14T23:19:11.480Z,3.25
2022-10-14T23:21:40.506Z,3.55
2022-10-14T23:24:18.325Z,3.60
2022-10-14T23:26:45.674Z,7.00
2022-10-14T23:29:16.074Z,4.55
2022-10-14T23:31:45.756Z,4.20
2022-10-14T23:34:15.532Z,3.13
2022-10-14T23:36:47.839Z,3.25
2022-10-14T23:39:15.467Z,5.00
2022-10-14T23:41:43.274Z,3.80
2022-10-14T23:44:10.403Z,5.57
2022-10-14T23:46:40.685Z,2.45
2022-10-14T23:49:21.476Z,4.18
2022-10-14T23:51:56.394Z,3.08
2022-10-14T23:54:23.556Z,5.50
2022-10-14T23:56:51.804Z,2.80
2022-10-14T23:59:23.809Z,3.10
